Terminal Aerodrome Forecast
Issued by NWS

Home | Current Version | Previous Version | Graphics & Text | Print | Product List | Glossary On
Versions: 1 2 3 4 5 6 7 8 9 10 11 12 13 14 15 16 17 18 19 20 21 22
538
FTUS43 KMPX 172327
TAFRNH
TAF
KRNH 172327Z 1800/1824 VRB03KT 5SM BR BKN008
     FM180100 24004KT 2SM BR SCT008
     FM180800 21006KT 3/4SM BR SCT250
     FM181200 20006KT 3SM BR FEW250
     FM181500 20006KT P6SM FEW250=

USA.gov is the U.S. government's official web portal to all federal, state and local government web resources and services.